createdAt,value
2018-04-24T00:00:29.231Z,12.67
2018-04-24T00:03:00.007Z,10.37
2018-04-24T00:05:30.788Z,10.73
2018-04-24T00:08:01.611Z,14.47
2018-04-24T00:10:32.383Z,12.70
2018-04-24T00:13:03.170Z,8.00
2018-04-24T00:15:33.983Z,8.50
2018-04-24T00:18:07.567Z,12.30
2018-04-24T00:20:38.449Z,11.37
2018-04-24T00:23:12.659Z,8.70
2018-04-24T00:25:43.481Z,15.07
2018-04-24T00:28:14.255Z,13.60
2018-04-24T00:30:45.052Z,9.00
2018-04-24T00:33:15.832Z,12.23
2018-04-24T00:35:46.613Z,12.00
2018-04-24T00:38:17.399Z,8.67
2018-04-24T00:40:48.200Z,11.77
2018-04-24T00:43:19.073Z,9.60
2018-04-24T00:45:49.881Z,9.60
2018-04-24T00:48:20.657Z,11.93
2018-04-24T00:50:51.456Z,10.57
2018-04-24T00:53:34.606Z,8.40
2018-04-24T00:56:05.358Z,11.83
2018-04-24T00:58:36.163Z,9.07
2018-04-24T01:01:07.056Z,11.37
2018-04-24T01:03:37.855Z,10.20
2018-04-24T01:06:08.664Z,11.23
2018-04-24T01:08:39.463Z,10.10
2018-04-24T01:11:10.260Z,14.03
2018-04-24T01:13:41.026Z,8.03
2018-04-24T01:16:11.831Z,9.50
2018-04-24T01:18:42.600Z,9.17
2018-04-24T01:21:13.481Z,8.20
2018-04-24T01:23:44.279Z,10.20
2018-04-24T01:26:15.056Z,8.87
2018-04-24T01:28:45.839Z,9.60
2018-04-24T01:31:16.616Z,9.60
2018-04-24T01:33:47.405Z,10.37
2018-04-24T01:36:18.216Z,9.27
2018-04-24T01:38:49.035Z,9.20
2018-04-24T01:41:23.672Z,10.53
2018-04-24T01:43:54.468Z,11.97
2018-04-24T01:46:25.263Z,8.40
2018-04-24T01:48:56.075Z,8.37
2018-04-24T01:51:26.895Z,9.13
2018-04-24T01:53:57.717Z,13.13
2018-04-24T01:56:28.490Z,8.83
2018-04-24T01:58:59.307Z,9.30
2018-04-24T02:01:30.081Z,10.27
2018-04-24T02:04:00.916Z,8.37
2018-04-24T02:06:31.693Z,9.20
2018-04-24T02:09:02.515Z,10.20
2018-04-24T02:11:33.288Z,11.00
2018-04-24T02:14:07.152Z,12.47
2018-04-24T02:16:37.929Z,14.50
2018-04-24T02:19:08.713Z,12.80
2018-04-24T02:21:39.512Z,10.57
2018-04-24T02:24:10.297Z,8.80
2018-04-24T02:26:41.083Z,9.27
2018-04-24T02:29:11.879Z,13.10
2018-04-24T02:31:42.677Z,10.73
2018-04-24T02:34:13.453Z,13.07
2018-04-24T02:36:44.227Z,11.23
2018-04-24T02:39:15.003Z,12.63
2018-04-24T02:41:45.771Z,10.50
2018-04-24T02:44:16.548Z,14.87
2018-04-24T02:46:47.356Z,14.23
2018-04-24T02:49:18.140Z,9.03
2018-04-24T02:51:48.995Z,10.70
2018-04-24T02:54:19.783Z,13.60
2018-04-24T02:56:50.580Z,9.50
2018-04-24T02:59:21.360Z,11.00
2018-04-24T03:01:52.131Z,10.83
2018-04-24T03:04:22.911Z,9.50
2018-04-24T03:06:53.714Z,9.10
2018-04-24T03:09:24.484Z,10.30
2018-04-24T03:11:55.335Z,13.50
2018-04-24T03:14:26.095Z,14.60
2018-04-24T03:16:56.908Z,13.60
2018-04-24T03:19:27.719Z,12.50
2018-04-24T03:21:58.528Z,15.23
2018-04-24T03:24:29.292Z,11.30
2018-04-24T03:27:00.064Z,12.40
2018-04-24T03:29:30.832Z,11.40
2018-04-24T03:32:01.623Z,9.57
2018-04-24T03:34:32.376Z,10.63
2018-04-24T03:37:03.169Z,12.10
2018-04-24T03:39:33.947Z,16.97
2018-04-24T03:42:04.752Z,11.87
2018-04-24T03:44:35.552Z,12.80
2018-04-24T03:47:06.316Z,10.73
2018-04-24T03:49:37.107Z,11.83
2018-04-24T03:52:07.887Z,12.30
2018-04-24T03:54:38.651Z,11.70
2018-04-24T03:57:09.447Z,11.73
2018-04-24T03:59:40.231Z,12.50
2018-04-24T04:02:11.015Z,13.30
2018-04-24T04:04:41.780Z,12.70
2018-04-24T04:07:12.589Z,12.30
2018-04-24T04:09:43.360Z,11.90
2018-04-24T04:12:14.143Z,11.53
2018-04-24T04:14:44.908Z,11.90
2018-04-24T04:17:27.959Z,12.43
2018-04-24T04:20:11.176Z,14.70
2018-04-24T04:22:54.459Z,13.55
2018-04-24T04:25:25.240Z,13.35
2018-04-24T04:27:56.023Z,13.83
2018-04-24T04:30:27.604Z,13.02
2018-04-24T04:32:58.659Z,12.40
2018-04-24T04:35:29.392Z,12.85
2018-04-24T04:38:00.180Z,17.10
2018-04-24T04:40:30.979Z,12.40
2018-04-24T04:43:01.776Z,15.43
2018-04-24T04:45:32.542Z,15.30
2018-04-24T04:48:03.342Z,10.77
2018-04-24T04:50:34.103Z,9.90
2018-04-24T04:53:04.916Z,11.60
2018-04-24T04:55:35.701Z,10.27
2018-04-24T04:58:06.504Z,12.00
2018-04-24T05:00:37.271Z,13.23
2018-04-24T05:03:08.100Z,12.50
2018-04-24T05:05:38.865Z,12.50
2018-04-24T05:08:09.737Z,10.57
2018-04-24T05:10:40.521Z,11.60
2018-04-24T05:13:11.368Z,12.20
2018-04-24T05:15:42.159Z,12.43
2018-04-24T05:18:12.961Z,18.43
2018-04-24T05:20:43.763Z,10.00
2018-04-24T05:23:14.809Z,10.93
2018-04-24T05:25:45.664Z,11.03
2018-04-24T05:28:16.463Z,7.67
2018-04-24T05:30:47.309Z,7.67
2018-04-24T05:33:18.103Z,9.60
2018-04-24T05:35:48.966Z,8.37
2018-04-24T05:38:19.863Z,6.83
2018-04-24T05:40:50.659Z,12.00
2018-04-24T05:43:21.451Z,8.77
2018-04-24T05:45:52.206Z,7.00
2018-04-24T05:48:23.151Z,9.60
2018-04-24T05:50:53.913Z,8.73
2018-04-24T05:53:24.716Z,8.03
2018-04-24T05:55:55.506Z,9.60
2018-04-24T05:58:26.353Z,8.80
2018-04-24T06:00:57.133Z,7.93
2018-04-24T06:03:27.931Z,6.90
2018-04-24T06:05:58.706Z,8.03
2018-04-24T06:08:29.600Z,7.10
2018-04-24T06:11:00.372Z,8.27
2018-04-24T06:13:31.139Z,8.47
2018-04-24T06:16:01.899Z,7.27
2018-04-24T06:18:32.714Z,7.77
2018-04-24T06:21:03.570Z,8.27
2018-04-24T06:23:34.410Z,6.43
2018-04-24T06:26:05.164Z,8.17
2018-04-24T06:28:36.325Z,8.20
2018-04-24T06:31:07.044Z,6.50
2018-04-24T06:33:37.903Z,7.83
2018-04-24T06:36:08.668Z,9.47
2018-04-24T06:38:39.542Z,6.37
2018-04-24T06:41:10.256Z,8.30
2018-04-24T06:43:41.212Z,9.20
2018-04-24T06:46:12.007Z,7.03
2018-04-24T06:48:42.816Z,6.17
2018-04-24T06:51:14.710Z,7.07
2018-04-24T06:53:45.727Z,7.17
2018-04-24T06:56:16.531Z,6.60
2018-04-24T06:58:47.336Z,8.33
2018-04-24T07:01:18.139Z,7.20
2018-04-24T07:03:49.196Z,5.57
2018-04-24T07:06:19.977Z,7.50
2018-04-24T07:08:50.891Z,8.90
2018-04-24T07:11:21.722Z,6.80
2018-04-24T07:13:52.526Z,5.47
2018-04-24T07:16:23.343Z,6.47
2018-04-24T07:18:54.122Z,7.53
2018-04-24T07:21:24.896Z,6.90
2018-04-24T07:23:55.696Z,10.20
2018-04-24T07:26:26.460Z,6.43
2018-04-24T07:28:57.497Z,6.30
2018-04-24T07:31:28.293Z,7.63
2018-04-24T07:33:59.093Z,10.87
2018-04-24T07:36:29.919Z,10.50
2018-04-24T07:39:00.740Z,8.50
2018-04-24T07:41:31.552Z,7.47
2018-04-24T07:44:02.542Z,7.50
2018-04-24T07:46:33.380Z,7.53
2018-04-24T07:49:04.135Z,5.97
2018-04-24T07:51:34.919Z,7.53
2018-04-24T07:54:05.719Z,7.53
2018-04-24T07:56:36.485Z,8.00
2018-04-24T07:59:07.325Z,7.30
2018-04-24T08:01:38.113Z,10.60
2018-04-24T08:04:08.923Z,6.13
2018-04-24T08:06:39.704Z,6.80
2018-04-24T08:09:10.535Z,7.57
2018-04-24T08:11:41.337Z,11.33
2018-04-24T08:14:12.132Z,7.60
2018-04-24T08:16:42.911Z,5.20
2018-04-24T08:19:13.740Z,9.10
2018-04-24T08:21:44.533Z,6.40
2018-04-24T08:24:15.357Z,4.83
2018-04-24T08:26:46.137Z,7.80
2018-04-24T08:29:16.978Z,7.70
2018-04-24T08:31:47.751Z,5.10
2018-04-24T08:34:18.595Z,7.13
2018-04-24T08:36:49.399Z,7.90
2018-04-24T08:39:20.301Z,5.30
2018-04-24T08:41:51.167Z,5.17
2018-04-24T08:44:21.995Z,7.33
2018-04-24T08:46:52.784Z,5.20
2018-04-24T08:49:23.583Z,5.33
2018-04-24T08:51:54.348Z,7.43
2018-04-24T08:54:25.183Z,5.43
2018-04-24T08:56:56.070Z,5.67
2018-04-24T08:59:26.836Z,7.30
2018-04-24T09:01:57.709Z,5.17
2018-04-24T09:04:28.476Z,7.23
2018-04-24T09:06:59.255Z,5.90
2018-04-24T09:09:30.156Z,7.27
2018-04-24T09:12:00.927Z,7.17
2018-04-24T09:14:31.723Z,5.33
2018-04-24T09:17:02.508Z,6.40
2018-04-24T09:19:33.303Z,7.60
2018-04-24T09:22:04.146Z,6.80
2018-04-24T09:24:34.955Z,8.40
2018-04-24T09:27:05.852Z,6.30
2018-04-24T09:29:36.688Z,6.20
2018-04-24T09:32:07.507Z,5.90
2018-04-24T09:34:38.315Z,5.30
2018-04-24T09:37:09.173Z,8.33
2018-04-24T09:39:39.975Z,6.93
2018-04-24T09:42:10.851Z,5.60
2018-04-24T09:44:41.719Z,5.90
2018-04-24T09:47:12.540Z,6.70
2018-04-24T09:49:43.321Z,5.17
2018-04-24T09:52:14.089Z,6.90
2018-04-24T09:54:44.888Z,5.97
2018-04-24T09:57:15.714Z,5.90
2018-04-24T09:59:46.502Z,4.67
2018-04-24T10:02:17.333Z,5.37
2018-04-24T10:04:48.080Z,5.30
2018-04-24T10:07:18.879Z,6.53
2018-04-24T10:09:49.703Z,4.43
2018-04-24T10:12:20.552Z,4.97
2018-04-24T10:14:51.351Z,5.20
2018-04-24T10:17:22.141Z,7.40
2018-04-24T10:19:52.930Z,6.10
2018-04-24T10:22:23.831Z,6.10
2018-04-24T10:24:54.672Z,5.57
2018-04-24T10:27:25.477Z,7.00
2018-04-24T10:29:56.260Z,7.00
2018-04-24T10:32:27.056Z,4.37
2018-04-24T10:34:57.824Z,4.33
2018-04-24T10:37:28.701Z,7.13
2018-04-24T10:39:59.404Z,5.20
2018-04-24T10:42:30.211Z,3.50
2018-04-24T10:45:00.975Z,4.93
2018-04-24T10:47:31.753Z,4.73
2018-04-24T10:50:02.604Z,5.00
2018-04-24T10:52:33.440Z,4.00
2018-04-24T10:55:04.296Z,6.50
2018-04-24T10:57:35.264Z,4.60
2018-04-24T11:00:06.080Z,5.87
2018-04-24T11:02:36.920Z,5.67
2018-04-24T11:05:07.700Z,6.93
2018-04-24T11:07:38.531Z,5.83
2018-04-24T11:10:09.320Z,6.00
2018-04-24T11:12:40.206Z,6.80
2018-04-24T11:15:10.978Z,8.17
2018-04-24T11:17:41.824Z,5.93
2018-04-24T11:20:12.691Z,6.97
2018-04-24T11:22:43.490Z,7.50
2018-04-24T11:25:14.276Z,6.93
2018-04-24T11:27:45.063Z,5.50
2018-04-24T11:30:15.866Z,4.27
2018-04-24T11:32:46.679Z,5.50
2018-04-24T11:35:17.459Z,6.43
2018-04-24T11:37:48.270Z,5.00
2018-04-24T11:40:19.043Z,6.37
2018-04-24T11:42:49.813Z,4.60
2018-04-24T11:45:20.620Z,7.73
2018-04-24T11:47:51.401Z,5.83
2018-04-24T11:50:22.223Z,4.10
2018-04-24T11:52:53.022Z,6.00
2018-04-24T11:55:23.807Z,3.80
2018-04-24T11:57:54.707Z,5.90
2018-04-24T12:00:25.525Z,7.07
2018-04-24T12:02:56.401Z,5.50
2018-04-24T12:05:27.107Z,5.10
2018-04-24T12:07:57.896Z,6.67
2018-04-24T12:10:28.791Z,4.70
2018-04-24T12:12:59.634Z,5.43
2018-04-24T12:15:30.450Z,8.00
2018-04-24T12:18:01.246Z,5.70
2018-04-24T12:20:35.315Z,6.57
2018-04-24T12:23:06.114Z,6.17
2018-04-24T12:25:36.919Z,5.60
2018-04-24T12:28:07.695Z,5.07
2018-04-24T12:30:38.603Z,5.03
2018-04-24T12:33:09.523Z,6.10
2018-04-24T12:35:40.320Z,4.03
2018-04-24T12:38:11.107Z,5.67
2018-04-24T12:40:41.940Z,4.27
2018-04-24T12:43:12.740Z,6.07
2018-04-24T12:45:43.568Z,5.37
2018-04-24T12:48:14.356Z,5.07
2018-04-24T12:50:45.196Z,4.43
2018-04-24T12:53:15.982Z,4.30
2018-04-24T12:55:46.803Z,5.73
2018-04-24T12:58:17.567Z,5.30
2018-04-24T13:00:48.376Z,6.90
2018-04-24T13:03:19.148Z,5.37
2018-04-24T13:05:49.923Z,4.80
2018-04-24T13:08:20.696Z,5.00
2018-04-24T13:10:51.592Z,5.20
2018-04-24T13:13:22.386Z,4.83
2018-04-24T13:15:53.275Z,4.80
2018-04-24T13:18:24.103Z,7.93
2018-04-24T13:20:54.840Z,4.07
2018-04-24T13:23:25.688Z,4.90
2018-04-24T13:25:56.489Z,3.87
2018-04-24T13:28:27.275Z,5.73
2018-04-24T13:30:58.067Z,7.73
2018-04-24T13:33:28.893Z,5.30
2018-04-24T13:35:59.819Z,4.67
2018-04-24T13:38:30.667Z,3.17
2018-04-24T13:41:01.510Z,4.30
2018-04-24T13:43:32.289Z,4.80
2018-04-24T13:46:03.165Z,4.97
2018-04-24T13:48:34.034Z,5.43
2018-04-24T13:51:04.843Z,4.57
2018-04-24T13:53:35.630Z,4.87
2018-04-24T13:56:06.451Z,6.90
2018-04-24T13:58:37.249Z,3.53
2018-04-24T14:01:08.068Z,4.03
2018-04-24T14:03:38.899Z,4.83
2018-04-24T14:06:09.770Z,5.70
2018-04-24T14:08:40.563Z,5.03
2018-04-24T14:11:11.351Z,5.07
2018-04-24T14:13:42.140Z,3.83
2018-04-24T14:16:13.071Z,3.50
2018-04-24T14:18:43.823Z,4.40
2018-04-24T14:21:14.637Z,3.70
2018-04-24T14:23:45.441Z,4.67
2018-04-24T14:26:16.272Z,3.50
2018-04-24T14:28:47.074Z,3.97
2018-04-24T14:31:18.032Z,4.30
2018-04-24T14:33:48.899Z,4.07
2018-04-24T14:36:19.758Z,5.57
2018-04-24T14:38:50.611Z,4.37
2018-04-24T14:41:21.446Z,4.33
2018-04-24T14:43:52.254Z,5.87
2018-04-24T14:46:23.087Z,5.33
2018-04-24T14:48:53.923Z,6.57
2018-04-24T14:51:24.749Z,6.30
2018-04-24T14:53:55.596Z,5.00
2018-04-24T14:56:26.431Z,4.30
2018-04-24T14:58:57.287Z,4.93
2018-04-24T15:01:28.095Z,5.53
2018-04-24T15:03:58.857Z,9.57
2018-04-24T15:06:29.712Z,4.20
2018-04-24T15:09:00.491Z,6.30
2018-04-24T15:11:31.323Z,5.70
2018-04-24T15:14:02.228Z,10.40
2018-04-24T15:16:33.071Z,6.53
2018-04-24T15:19:03.916Z,3.60
2018-04-24T15:21:34.718Z,4.40
2018-04-24T15:24:05.483Z,4.17
2018-04-24T15:26:36.344Z,5.17
2018-04-24T15:29:07.183Z,6.50
2018-04-24T15:31:37.997Z,6.80
2018-04-24T15:34:08.845Z,4.37
2018-04-24T15:36:39.668Z,5.20
2018-04-24T15:39:10.459Z,3.40
2018-04-24T15:41:41.256Z,4.30
2018-04-24T15:44:12.038Z,3.40
2018-04-24T15:46:42.832Z,5.70
2018-04-24T15:49:13.616Z,6.13
2018-04-24T15:51:44.399Z,4.10
2018-04-24T15:54:15.211Z,4.23
2018-04-24T15:56:46.027Z,4.17
2018-04-24T15:59:16.939Z,5.23
2018-04-24T16:01:47.744Z,4.40
2018-04-24T16:04:18.519Z,4.97
2018-04-24T16:06:49.389Z,4.10
2018-04-24T16:09:20.165Z,8.03
2018-04-24T16:11:50.947Z,6.23
2018-04-24T16:14:21.732Z,4.80
2018-04-24T16:16:52.613Z,4.80
2018-04-24T16:19:23.403Z,4.57
2018-04-24T16:21:54.226Z,4.90
2018-04-24T16:24:25.013Z,4.00
2018-04-24T16:26:55.864Z,6.30
2018-04-24T16:29:26.635Z,4.80
2018-04-24T16:31:57.472Z,5.17
2018-04-24T16:34:28.273Z,5.87
2018-04-24T16:36:59.057Z,4.93
2018-04-24T16:39:29.923Z,8.63
2018-04-24T16:42:00.703Z,5.83
2018-04-24T16:44:31.491Z,5.17
2018-04-24T16:47:02.322Z,5.00
2018-04-24T16:49:33.169Z,10.90
2018-04-24T16:52:03.992Z,4.90
2018-04-24T16:54:34.781Z,8.57
2018-04-24T16:57:05.591Z,4.93
2018-04-24T16:59:36.360Z,5.40
2018-04-24T17:02:07.181Z,5.13
2018-04-24T17:04:37.962Z,4.23
2018-04-24T17:07:08.779Z,5.30
2018-04-24T17:09:39.544Z,4.10
2018-04-24T17:12:10.457Z,3.93
2018-04-24T17:14:41.287Z,5.90
2018-04-24T17:17:12.067Z,4.73
2018-04-24T17:19:42.845Z,3.60
2018-04-24T17:22:13.755Z,4.50
2018-04-24T17:24:44.568Z,6.17
2018-04-24T17:27:15.337Z,7.60
2018-04-24T17:29:46.115Z,4.50
2018-04-24T17:32:16.901Z,6.17
2018-04-24T17:34:47.675Z,3.97
2018-04-24T17:37:18.689Z,5.80
2018-04-24T17:39:49.591Z,4.63
2018-04-24T17:42:20.401Z,4.77
2018-04-24T17:44:51.174Z,6.43
2018-04-24T17:47:22.009Z,4.73
2018-04-24T17:49:52.862Z,4.30
2018-04-24T17:52:23.588Z,4.43
2018-04-24T17:54:54.439Z,5.30
2018-04-24T17:57:25.297Z,6.40
2018-04-24T17:59:56.090Z,5.43
2018-04-24T18:02:26.887Z,9.70
2018-04-24T18:04:57.651Z,6.03
2018-04-24T18:07:28.451Z,6.87
2018-04-24T18:09:59.227Z,8.13
2018-04-24T18:12:30.031Z,7.03
2018-04-24T18:15:00.811Z,4.73
2018-04-24T18:17:31.632Z,5.93
2018-04-24T18:20:02.439Z,6.37
2018-04-24T18:22:33.244Z,11.60
2018-04-24T18:25:04.076Z,20.40
2018-04-24T18:27:34.896Z,29.90
2018-04-24T18:30:05.688Z,18.53
2018-04-24T18:32:36.501Z,14.20
2018-04-24T18:35:07.267Z,15.10
2018-04-24T18:37:38.060Z,8.20
2018-04-24T18:40:08.903Z,7.70
2018-04-24T18:42:39.677Z,6.00
2018-04-24T18:45:10.440Z,21.43
2018-04-24T18:47:41.211Z,25.77
2018-04-24T18:50:12.825Z,11.33
2018-04-24T18:52:43.694Z,16.20
2018-04-24T18:55:14.599Z,18.80
2018-04-24T18:57:45.439Z,16.47
2018-04-24T19:00:16.227Z,15.83
2018-04-24T19:02:47.074Z,15.73
2018-04-24T19:05:19.908Z,7.17
2018-04-24T19:07:50.743Z,10.07
2018-04-24T19:10:21.559Z,9.80
2018-04-24T19:12:52.342Z,18.13
2018-04-24T19:15:23.091Z,8.63
2018-04-24T19:17:53.923Z,5.50
2018-04-24T19:20:24.751Z,6.40
2018-04-24T19:22:55.691Z,10.13
2018-04-24T19:25:33.627Z,8.13
2018-04-24T19:28:04.678Z,6.90
2018-04-24T19:30:35.485Z,8.80
2018-04-24T19:33:06.288Z,7.07
2018-04-24T19:35:37.112Z,8.33
2018-04-24T19:38:08.054Z,5.67
2018-04-24T19:40:45.060Z,7.23
2018-04-24T19:43:15.880Z,8.50
2018-04-24T19:45:46.641Z,18.70
2018-04-24T19:48:23.639Z,9.80
2018-04-24T19:50:54.436Z,6.77
2018-04-24T19:53:25.220Z,9.27
2018-04-24T19:55:55.993Z,6.63
2018-04-24T19:58:26.909Z,9.73
2018-04-24T20:00:57.814Z,6.43
2018-04-24T20:03:28.611Z,8.27
2018-04-24T20:05:59.404Z,6.57
2018-04-24T20:08:30.290Z,6.27
2018-04-24T20:11:01.139Z,6.87
2018-04-24T20:13:31.932Z,9.00
2018-04-24T20:16:02.709Z,8.40
2018-04-24T20:18:33.598Z,7.20
2018-04-24T20:21:04.397Z,7.37
2018-04-24T20:23:35.375Z,9.80
2018-04-24T20:26:06.132Z,6.30
2018-04-24T20:28:36.927Z,5.97
2018-04-24T20:31:07.756Z,9.30
2018-04-24T20:33:38.593Z,6.80
2018-04-24T20:36:09.362Z,7.93
2018-04-24T20:38:40.327Z,6.13
2018-04-24T20:41:11.108Z,6.87
2018-04-24T20:43:41.891Z,6.97
2018-04-24T20:46:12.657Z,5.70
2018-04-24T20:48:43.448Z,5.93
2018-04-24T20:51:14.329Z,6.47
2018-04-24T20:53:45.255Z,6.93
2018-04-24T20:56:16.064Z,9.63
2018-04-24T20:58:46.887Z,6.77
2018-04-24T21:01:17.669Z,5.67
2018-04-24T21:03:48.503Z,8.70
2018-04-24T21:06:19.317Z,6.13
2018-04-24T21:08:50.113Z,8.47
2018-04-24T21:11:20.891Z,6.10
2018-04-24T21:13:51.679Z,6.30
2018-04-24T21:16:22.463Z,6.77
2018-04-24T21:18:53.337Z,6.23
2018-04-24T21:21:24.148Z,8.47
2018-04-24T21:23:54.947Z,6.47
2018-04-24T21:26:25.834Z,7.53
2018-04-24T21:28:56.615Z,7.77
2018-04-24T21:31:27.395Z,6.33
2018-04-24T21:33:58.287Z,5.83
2018-04-24T21:36:29.074Z,7.13
2018-04-24T21:38:59.875Z,6.90
2018-04-24T21:41:30.663Z,10.47
2018-04-24T21:44:01.441Z,6.40
2018-04-24T21:46:34.434Z,8.97
2018-04-24T21:49:05.249Z,5.93
2018-04-24T21:51:36.063Z,6.40
2018-04-24T21:54:07.519Z,6.17
2018-04-24T21:56:38.307Z,6.90
2018-04-24T21:59:09.087Z,6.50
2018-04-24T22:01:39.949Z,7.90
2018-04-24T22:04:10.699Z,8.50
2018-04-24T22:06:41.467Z,6.87
2018-04-24T22:09:12.252Z,7.00
2018-04-24T22:11:43.034Z,7.20
2018-04-24T22:14:13.849Z,6.90
2018-04-24T22:16:44.624Z,8.00
2018-04-24T22:19:15.421Z,8.27
2018-04-24T22:21:46.224Z,7.60
2018-04-24T22:24:17.081Z,7.07
2018-04-24T22:26:47.887Z,10.33
2018-04-24T22:29:18.691Z,8.00
2018-04-24T22:31:49.465Z,6.70
2018-04-24T22:34:20.296Z,6.40
2018-04-24T22:36:51.079Z,7.40
2018-04-24T22:39:21.908Z,8.20
2018-04-24T22:41:52.696Z,7.20
2018-04-24T22:44:23.505Z,6.93
2018-04-24T22:46:54.305Z,8.50
2018-04-24T22:49:25.074Z,5.80
2018-04-24T22:51:55.839Z,6.50
2018-04-24T22:54:26.629Z,7.00
2018-04-24T22:56:57.419Z,6.73
2018-04-24T22:59:28.248Z,7.23
2018-04-24T23:01:59.016Z,7.73
2018-04-24T23:04:29.807Z,8.70
2018-04-24T23:07:00.647Z,8.43
2018-04-24T23:09:31.471Z,8.30
2018-04-24T23:12:14.536Z,7.50
2018-04-24T23:14:57.839Z,7.35
2018-04-24T23:17:41.051Z,8.98
2018-04-24T23:20:15.669Z,6.87
2018-04-24T23:22:46.464Z,7.65
2018-04-24T23:25:17.259Z,9.40
2018-04-24T23:27:48.042Z,7.10
2018-04-24T23:30:18.851Z,10.50
2018-04-24T23:32:49.616Z,6.90
2018-04-24T23:35:20.407Z,6.57
2018-04-24T23:37:51.220Z,8.77
2018-04-24T23:40:22.027Z,7.30
2018-04-24T23:42:52.800Z,8.50
2018-04-24T23:45:23.604Z,7.83
2018-04-24T23:47:54.387Z,8.93
2018-04-24T23:50:25.244Z,7.87
2018-04-24T23:52:56.040Z,9.00
2018-04-24T23:55:26.840Z,7.80
2018-04-24T23:57:57.611Z,7.53
